Time;durP1;ratioP1;P1;durP2;ratioP2;P2;SDS_P1;SDS_P2;PMS_P1;PMS_P2;Temp;Humidity;BMP_temperature;BMP_pressure;BME280_temperature;BME280_humidity;BME280_pressure;Samples;Min_cycle;Max_cycle;Signal;HPM_P1;HPM_P2
2022/12/22 03:28:11;;;;;;;3.65;3.08;;;;;;;;;;5031704;28;20125;-75
2022/12/22 03:30:39;;;;;;;4.78;3.40;;;;;;;;;;5036306;28;20048;-76
2022/12/22 03:33:07;;;;;;;3.53;2.90;;;;;;;;;;5051513;28;20056;-76
2022/12/22 03:35:34;;;;;;;2.60;2.10;;;;;;;;;;5051572;28;20063;-76
2022/12/22 03:38:02;;;;;;;3.38;2.90;;;;;;;;;;5051320;28;20059;-76
2022/12/22 03:40:30;;;;;;;3.63;2.90;;;;;;;;;;5052213;28;20051;-75
2022/12/22 03:48:28;;;;;;;3.95;3.03;;;;;;;;;;5051389;28;20052;-76
2022/12/22 03:50:55;;;;;;;3.20;2.70;;;;;;;;;;5044312;28;20140;-76
2022/12/22 03:53:22;;;;;;;3.03;2.70;;;;;;;;;;5031177;28;20063;-75
2022/12/22 03:55:49;;;;;;;4.07;2.70;;;;;;;;;;5031703;28;20053;-76
2022/12/22 03:58:16;;;;;;;3.53;2.78;;;;;;;;;;5051307;28;20053;-76
2022/12/22 04:00:43;;;;;;;2.90;2.42;;;;;;;;;;5050928;28;20053;-76
2022/12/22 04:03:10;;;;;;;2.95;2.50;;;;;;;;;;5051168;28;20224;-75
2022/12/22 04:05:38;;;;;;;3.20;2.83;;;13.00;66.70;;;;;;5051402;28;20088;-76
2022/12/22 04:08:05;;;;;;;3.33;2.55;;;;;;;;;;5051009;28;20060;-76
2022/12/22 04:13:17;;;;;;;3.40;3.05;;;;;;;;;;5032070;28;20045;-76
2022/12/22 04:15:44;;;;;;;3.75;3.20;;;;;;;;;;5031385;28;20128;-76
2022/12/22 04:18:11;;;;;;;4.68;2.78;;;;;;;;;;5031004;28;20124;-76
2022/12/22 04:20:39;;;;;;;4.07;3.05;;;;;;;;;;5035168;28;20053;-76
2022/12/22 04:23:06;;;;;;;3.80;2.92;;;;;;;;;;5050691;28;20053;-75
2022/12/22 04:25:34;;;;;;;3.47;2.90;;;;;;;;;;5050761;28;20140;-76
2022/12/22 04:28:01;;;;;;;4.38;3.67;;;;;;;;;;5050883;28;20044;-75
2022/12/22 04:30:28;;;;;;;4.65;3.25;;;;;;;;;;5047949;28;20057;-76
2022/12/22 04:32:55;;;;;;;4.32;3.38;;;;;;;;;;5030540;28;20136;-76
2022/12/22 04:35:22;;;;;;;3.50;3.17;;;;;;;;;;5031091;28;20140;-76
2022/12/22 04:37:50;;;;;;;4.00;3.28;;;;;;;;;;5046938;28;20059;-76
2022/12/22 04:40:18;;;;;;;4.25;3.15;;;;;;;;;;5050162;28;20052;-76
2022/12/22 04:42:45;;;;;;;3.22;2.60;;;;;;;;;;5050519;28;20413;-76
2022/12/22 04:45:12;;;;;;;3.90;3.20;;;;;;;;;;5051928;28;20413;-76
2022/12/22 04:47:39;;;;;;;3.50;3.08;;;;;;;;;;5051447;28;20148;-76
2022/12/22 04:50:07;;;;;;;3.90;3.33;;;12.90;67.80;;;;;;5040789;28;20057;-75
2022/12/22 04:52:34;;;;;;;3.83;3.42;;;;;;;;;;5031692;28;20045;-76
2022/12/22 04:55:02;;;;;;;4.18;3.30;;;12.90;67.90;;;;;;5030719;28;20057;-76
2022/12/22 04:57:29;;;;;;;3.65;3.20;;;;;;;;;;5044183;28;20057;-76
2022/12/22 04:59:56;;;;;;;3.88;3.30;;;;;;;;;;5049902;28;20128;-76
2022/12/22 05:02:23;;;;;;;4.47;3.55;;;;;;;;;;5050524;28;20063;-76
2022/12/22 05:04:50;;;;;;;3.72;3.00;;;;;;;;;;5050574;28;20057;-76
2022/12/22 05:07:17;;;;;;;4.05;3.47;;;;;;;;;;5050548;28;20061;-76
2022/12/22 05:09:44;;;;;;;3.75;3.00;;;;;;;;;;5044069;28;20061;-76
2022/12/22 05:14:57;;;;;;;3.90;3.20;;;;;;;;;;5030809;28;20491;-76
2022/12/22 05:17:24;;;;;;;3.28;2.70;;;;;;;;;;5031420;28;20071;-76
2022/12/22 05:19:51;;;;;;;3.65;3.10;;;;;;;;;;5038530;28;20395;-76
2022/12/22 05:22:18;;;;;;;3.97;2.80;;;;;;;;;;5049988;28;20420;-76
2022/12/22 05:24:45;;;;;;;3.28;2.97;;;;;;;;;;5051604;28;20045;-76
2022/12/22 05:27:14;;;;;;;3.08;2.78;;;;;;;;;;5050242;28;20053;-75
2022/12/22 05:29:41;;;;;;;3.55;2.92;;;;;;;;;;5050842;28;20053;-76
2022/12/22 05:32:08;;;;;;;3.67;3.10;;;;;;;;;;5050023;28;20053;-76
2022/12/22 05:34:35;;;;;;;2.88;2.58;;;;;;;;;;5050129;28;20057;-76
2022/12/22 05:37:02;;;;;;;4.18;3.00;;;;;;;;;;5049846;28;20064;-76
2022/12/22 05:39:29;;;;;;;3.75;2.80;;;;;;;;;;5049633;28;20128;-76
2022/12/22 05:41:56;;;;;;;3.38;3.00;;;;;;;;;;5050124;28;20080;-76
2022/12/22 05:44:24;;;;;;;2.78;2.47;;;;;;;;;;5049998;28;20053;-76
2022/12/22 05:46:52;;;;;;;3.95;2.97;;;;;;;;;;5050087;28;20500;-76
2022/12/22 05:49:19;;;;;;;2.75;2.53;;;;;;;;;;5047522;28;20470;-75
2022/12/22 05:51:46;;;;;;;3.00;2.70;;;;;;;;;;5031362;28;20045;-75
2022/12/22 05:54:13;;;;;;;3.15;2.80;;;;;;;;;;5032627;28;20059;-76
2022/12/22 05:56:40;;;;;;;2.67;2.47;;;;;;;;;;5040620;28;20059;-76
2022/12/22 05:59:07;;;;;;;2.88;2.55;;;;;;;;;;5053065;28;20049;-75
2022/12/22 06:01:36;;;;;;;2.97;2.50;;;;;;;;;;5053285;28;20136;-76
2022/12/22 06:04:03;;;;;;;3.08;2.70;;;;;;;;;;5053509;28;20059;-76
2022/12/22 06:06:30;;;;;;;3.67;2.70;;;;;;;;;;5053516;28;20413;-76
2022/12/22 06:08:57;;;;;;;3.22;2.92;;;;;;;;;;5053405;28;20128;-76
2022/12/22 06:11:24;;;;;;;4.43;2.78;;;;;;;;;;5034341;28;20401;-75
2022/12/22 06:13:51;;;;;;;3.20;2.90;;;;;;;;;;5033345;28;20417;-76
2022/12/22 06:16:18;;;;;;;3.38;2.90;;;;;;;;;;5033049;28;20421;-76
2022/12/22 06:18:46;;;;;;;3.35;3.00;;;;;;;;;;5033359;28;20447;-76
2022/12/22 06:21:13;;;;;;;4.65;3.00;;;;;;;;;;5051537;28;20048;-76
2022/12/22 06:23:40;;;;;;;3.15;2.67;;;;;;;;;;5054032;28;20433;-75
2022/12/22 06:26:07;;;;;;;3.60;3.20;;;;;;;;;;5053057;28;20486;-76
2022/12/22 06:28:34;;;;;;;3.10;2.80;;;;;;;;;;5052942;28;20055;-76
2022/12/22 06:31:01;;;;;;;2.90;2.50;;;;;;;;;;5052570;28;20063;-76
2022/12/22 06:33:28;;;;;;;3.30;2.80;;;;;;;;;;5052389;28;20053;-76
2022/12/22 06:35:56;;;;;;;3.10;2.80;;;13.10;67.90;;;;;;5043854;28;20049;-75
2022/12/22 06:38:26;;;;;;;3.35;3.05;;;;;;;;;;5044413;28;20115;-75
2022/12/22 06:40:53;;;;;;;3.70;3.30;;;;;;;;;;5043227;28;20060;-75
2022/12/22 06:43:19;;;;;;;3.22;2.65;;;;;;;;;;5041757;28;20062;-75
2022/12/22 06:45:46;;;;;;;4.25;3.00;;;;;;;;;;5040678;28;20045;-75
2022/12/22 06:48:13;;;;;;;2.95;2.65;;;;;;;;;;5040570;28;20081;-75
2022/12/22 06:50:40;;;;;;;5.13;2.90;;;;;;;;;;5043112;28;20061;-75
2022/12/22 06:53:09;;;;;;;3.80;3.03;;;;;;;;;;5042524;28;20061;-75
2022/12/22 06:55:36;;;;;;;3.05;2.30;;;;;;;;;;5053711;28;20432;-75
2022/12/22 06:58:03;;;;;;;3.75;2.63;;;;;;;;;;5052552;28;20053;-75
2022/12/22 07:00:30;;;;;;;2.58;2.38;;;;;;;;;;5051300;28;20508;-75
2022/12/22 07:02:57;;;;;;;3.05;2.75;;;;;;;;;;5052200;28;20136;-75
2022/12/22 07:05:25;;;;;;;3.40;2.85;;;;;;;;;;5049378;28;20049;-75
2022/12/22 07:07:52;;;;;;;4.10;3.22;;;;;;;;;;5040044;28;20080;-75
2022/12/22 07:10:56;;;;;;;3.78;3.22;;;;;;;;;;5043800;28;20071;-75
2022/12/22 07:13:19;;;;;;;4.25;3.40;;;;;;;;;;5039774;28;20071;-75
2022/12/22 07:15:46;;;;;;;4.28;2.80;;;;;;;;;;5048434;28;20102;-74
2022/12/22 07:18:13;;;;;;;2.92;2.20;;;;;;;;;;5043575;28;20049;-74
2022/12/22 07:20:40;;;;;;;2.58;2.20;;;;;;;;;;5042833;28;20053;-76
2022/12/22 07:23:07;;;;;;;2.72;2.17;;;;;;;;;;5052011;28;20053;-75
2022/12/22 07:25:35;;;;;;;3.83;2.72;;;;;;;;;;5051889;28;20127;-75
2022/12/22 07:28:02;;;;;;;3.15;2.50;;;;;;;;;;5037287;28;20057;-75
2022/12/22 07:30:29;;;;;;;2.72;2.40;;;;;;;;;;5032322;28;20140;-75
2022/12/22 07:32:56;;;;;;;2.90;2.53;;;;;;;;;;5031866;28;20057;-76
2022/12/22 07:35:23;;;;;;;5.78;4.07;;;;;;;;;;5032989;28;20136;-75
2022/12/22 07:37:51;;;;;;;4.38;3.60;;;;;;;;;;5048367;28;20507;-75
2022/12/22 07:40:18;;;;;;;4.70;3.70;;;;;;;;;;5048075;28;20504;-75
2022/12/22 07:42:45;;;;;;;3.92;3.08;;;;;;;;;;5048505;28;20517;-75
2022/12/22 07:45:12;;;;;;;4.63;3.47;;;;;;;;;;5051720;28;20077;-75
2022/12/22 07:47:39;;;;;;;3.85;3.33;;;;;;;;;;5051522;28;20067;-75
2022/12/22 07:50:24;;;;;;;4.10;3.00;;;13.30;65.90;;;;;;5050555;28;20047;-76
2022/12/22 07:52:51;;;;;;;3.72;3.00;;;;;;;;;;5051297;28;20053;-75
2022/12/22 07:55:18;;;;;;;5.25;3.10;;;;;;;;;;5051667;28;20053;-75
2022/12/22 07:57:47;;;;;;;5.93;3.20;;;;;;;;;;5050680;28;20151;-76
2022/12/22 08:00:14;;;;;;;4.47;3.35;;;;;;;;;;5051154;28;20136;-75
2022/12/22 08:02:41;;;;;;;3.88;3.15;;;;;;;;;;5051229;28;20071;-75
2022/12/22 08:05:09;;;;;;;4.40;2.95;;;;;;;;;;5051015;28;20091;-75
2022/12/22 08:07:36;;;;;;;3.72;2.95;;;;;;;;;;5050929;28;20135;-75
2022/12/22 08:10:05;;;;;;;3.65;2.80;;;;;;;;;;5046133;28;20045;-75
2022/12/22 08:12:32;;;;;;;4.18;2.90;;;;;;;;;;5030953;28;20057;-75
2022/12/22 08:15:01;;;;;;;4.80;2.83;;;;;;;;;;5031094;28;20376;-76
2022/12/22 08:17:28;;;;;;;3.50;2.80;;;;;;;;;;5030862;28;20145;-75
2022/12/22 08:19:55;;;;;;;2.78;2.42;;;;;;;;;;5038167;28;20810;-75
2022/12/22 08:22:24;;;;;;;3.65;2.60;;;;;;;;;;5050691;28;20067;-75
2022/12/22 08:24:51;;;;;;;3.65;2.70;;;;;;;;;;5050995;28;20092;-75
2022/12/22 08:27:21;;;;;;;3.15;2.50;;;13.60;66.70;;;;;;5045019;28;20067;-75
2022/12/22 08:29:49;;;;;;;2.72;2.35;;;13.70;66.60;;;;;;5041532;28;20041;-75
2022/12/22 08:32:17;;;;;;;3.67;2.67;;;;;;;;;;5048369;28;20049;-77
2022/12/22 08:34:44;;;;;;;3.60;2.80;;;;;;;;;;5050897;28;20486;-77
2022/12/22 08:37:12;;;;;;;3.70;2.72;;;;;;;;;;5050013;28;20589;-75
2022/12/22 08:39:39;;;;;;;2.80;2.25;;;;;;;;;;5050570;28;20048;-75
2022/12/22 08:42:07;;;;;;;3.92;2.80;;;;;;;;;;5030821;28;20136;-76
2022/12/22 08:44:34;;;;;;;3.08;2.42;;;;;;;;;;5030324;28;20429;-75
2022/12/22 08:47:01;;;;;;;3.53;2.70;;;;;;;;;;3273928;28;10000834;-76
2022/12/22 08:49:29;;;;;;;3.67;3.10;;;;;;;;;;4110277;28;10000744;-77
2022/12/22 08:51:56;;;;;;;4.65;2.70;;;;;;;;;;5029975;28;20132;-75
2022/12/22 08:54:24;;;;;;;3.92;2.60;;;;;;;;;;5030496;28;20140;-75
2022/12/22 08:56:51;;;;;;;3.53;2.55;;;;;;;;;;5030454;28;20163;-77
2022/12/22 08:59:18;;;;;;;4.30;2.90;;;;;;;;;;5030609;28;20084;-76
2022/12/22 09:01:49;;;;;;;4.00;2.85;;;;;;;;;;5030061;28;20141;-75
2022/12/22 09:04:16;;;;;;;4.38;2.90;;;;;;;;;;5030576;28;20054;-76
2022/12/22 09:06:44;;;;;;;4.35;2.88;;;;;;;;;;5027651;28;20667;-76
2022/12/22 09:09:12;;;;;;;3.70;2.67;;;13.80;65.70;;;;;;5010717;28;20054;-75
2022/12/22 09:11:39;;;;;;;3.78;2.72;;;;;;;;;;5019588;28;20400;-75
2022/12/22 09:14:06;;;;;;;4.65;2.80;;;;;;;;;;5030455;28;20060;-76
2022/12/22 09:16:33;;;;;;;6.82;3.28;;;;;;;;;;5030410;28;20128;-76
2022/12/22 09:19:00;;;;;;;4.43;2.90;;;;;;;;;;5023751;28;20140;-76
2022/12/22 09:21:28;;;;;;;3.70;2.70;;;;;;;;;;5019800;28;20060;-76
2022/12/22 09:23:56;;;;;;;4.75;3.05;;;;;;;;;;5020389;28;20473;-76
2022/12/22 09:26:24;;;;;;;5.57;3.55;;;;;;;;;;5020355;28;20064;-77
2022/12/22 09:28:51;;;;;;;4.18;3.10;;;;;;;;;;5021144;28;20426;-76
2022/12/22 09:31:18;;;;;;;4.55;3.03;;;;;;;;;;5024120;28;20115;-76
2022/12/22 09:33:45;;;;;;;5.47;2.75;;;;;;;;;;5023452;28;20071;-76
2022/12/22 09:36:13;;;;;;;4.63;3.20;;;13.80;66.20;;;;;;5023999;28;20056;-76
2022/12/22 09:38:40;;;;;;;5.80;3.08;;;;;;;;;;5022821;28;20096;-76
2022/12/22 09:41:10;;;;;;;3.95;3.00;;;;;;;;;;5024442;28;20042;-77
2022/12/22 09:43:37;;;;;;;4.97;3.42;;;;;;;;;;5022551;28;20053;-76
2022/12/22 09:46:04;;;;;;;3.78;2.75;;;;;;;;;;5019028;28;20050;-76
2022/12/22 09:48:35;;;;;;;6.05;3.20;;;13.70;66.60;;;;;;5014255;28;20217;-77
2022/12/22 09:51:03;;;;;;;4.03;2.70;;;;;;;;;;5015226;28;20062;-77
2022/12/22 09:53:30;;;;;;;4.88;3.20;;;;;;;;;;5019066;28;20085;-78
2022/12/22 09:55:57;;;;;;;4.38;3.00;;;;;;;;;;5017002;28;20081;-77
2022/12/22 09:58:26;;;;;;;4.20;2.88;;;;;;;;;;5033605;28;20060;-77
2022/12/22 10:00:57;;;;;;;4.70;3.28;;;13.80;66.50;;;;;;5030160;28;20405;-75
2022/12/22 10:03:28;;;;;;;3.97;3.03;;;;;;;;;;5033665;28;20132;-76
2022/12/22 10:05:57;;;;;;;5.75;3.22;;;;;;;;;;5016918;28;20050;-76
2022/12/22 10:08:26;;;;;;;3.63;2.90;;;;;;;;;;5014676;28;20141;-76
2022/12/22 10:10:53;;;;;;;5.00;3.13;;;;;;;;;;5014672;28;20058;-75
2022/12/22 10:13:21;;;;;;;5.13;3.05;;;;;;;;;;5013583;28;20136;-76
2022/12/22 10:15:50;;;;;;;7.18;3.65;;;;;;;;;;5027659;28;20152;-76
2022/12/22 10:18:18;;;;;;;4.90;2.97;;;13.80;65.90;;;;;;5022387;28;20418;-76
2022/12/22 10:20:46;;;;;;;7.88;3.45;;;;;;;;;;5023759;28;20485;-77
2022/12/22 10:23:15;;;;;;;8.75;3.80;;;13.70;66.10;;;;;;5029926;28;20053;-77
2022/12/22 10:25:43;;;;;;;11.15;3.75;;;;;;;;;;5020923;28;20136;-77
2022/12/22 10:28:11;;;;;;;10.82;3.70;;;;;;;;;;5031535;28;20053;-76
2022/12/22 10:30:39;;;;;;;9.35;3.90;;;;;;;;;;5028494;28;20078;-76
2022/12/22 10:33:08;;;;;;;9.65;3.70;;;;;;;;;;5027788;28;20454;-75
2022/12/22 10:35:49;;;;;;;7.65;3.95;;;;;;;;;;5027629;28;20472;-76
2022/12/22 10:38:21;;;;;;;9.30;3.75;;;13.80;66.80;;;;;;5032932;28;20405;-76
2022/12/22 10:40:48;;;;;;;8.88;3.67;;;;;;;;;;5029917;28;20568;-75
2022/12/22 10:43:19;;;;;;;7.82;3.80;;;13.80;66.80;;;;;;5013037;28;20057;-75
2022/12/22 10:45:47;;;;;;;8.77;3.92;;;;;;;;;;5013215;28;20054;-75
2022/12/22 10:48:16;;;;;;;11.05;3.88;;;;;;;;;;5012844;28;20064;-76
2022/12/22 10:50:45;;;;;;;9.60;4.65;;;;;;;;;;5012955;28;20136;-76
2022/12/22 10:53:12;;;;;;;9.68;3.63;;;;;;;;;;5012729;28;20061;-76
2022/12/22 10:55:39;;;;;;;10.85;3.67;;;;;;;;;;5014172;28;20053;-75
2022/12/22 10:58:15;;;;;;;9.10;3.92;;;13.90;66.70;;;;;;5012818;28;20054;-75
2022/12/22 11:00:43;;;;;;;6.03;3.50;;;;;;;;;;5013061;28;20136;-76
2022/12/22 11:03:13;;;;;;;6.97;3.65;;;13.90;66.70;;;;;;5012859;28;20487;-76
2022/12/22 11:05:41;;;;;;;8.45;3.50;;;13.90;66.90;;;;;;5012583;28;20077;-77
2022/12/22 11:08:15;;;;;;;5.40;3.10;;;13.90;66.70;;;;;;5012923;28;20054;-76
2022/12/22 11:10:44;;;;;;;8.27;3.45;;;;;;;;;;5021006;28;20409;-76
2022/12/22 11:13:20;;;;;;;9.13;2.90;;;;;;;;;;5032391;28;20075;-75
2022/12/22 11:15:49;;;;;;;6.50;3.42;;;13.90;66.50;;;;;;5027450;28;20487;-75
2022/12/22 11:18:23;;;;;;;9.05;3.80;;;;;;;;;;5012306;28;20061;-76
2022/12/22 11:20:56;;;;;;;7.97;3.40;;;14.00;66.60;;;;;;5026937;28;20049;-77
2022/12/22 11:23:26;;;;;;;6.20;3.13;;;;;;;;;;5030617;28;20481;-76
2022/12/22 11:25:55;;;;;;;5.45;3.00;;;;;;;;;;5017421;28;20137;-76
2022/12/22 11:28:27;;;;;;;8.93;3.00;;;;;;;;;;5012345;28;20050;-76
2022/12/22 11:30:56;;;;;;;4.28;2.80;;;;;;;;;;5019569;28;20053;-75
2022/12/22 11:33:26;;;;;;;4.88;2.95;;;;;;;;;;5031242;28;20524;-75
2022/12/22 11:35:57;;;;;;;5.30;2.70;;;;;;;;;;5029288;28;20060;-76
2022/12/22 11:38:38;;;;;;;5.10;2.60;;;14.00;66.60;;;;;;5031935;28;20500;-75
2022/12/22 11:41:07;;;;;;;4.43;2.75;;;14.00;65.60;;;;;;5019441;28;20053;-75
2022/12/22 11:43:38;;;;;;;5.25;3.20;;;14.00;66.60;;;;;;5022421;28;20419;-76
2022/12/22 11:46:13;;;;;;;6.70;2.90;;;;;;;;;;5048341;28;20414;-75
2022/12/22 11:48:45;;;;;;;11.45;3.00;;;;;;;;;;5031964;28;20065;-76
2022/12/22 11:51:15;;;;;;;5.22;2.88;;;;;;;;;;5011733;28;20046;-76
2022/12/22 11:54:03;;;;;;;5.32;2.65;;;;;;;;;;5022164;28;20056;-75
2022/12/22 11:56:33;;;;;;;5.43;2.70;;;14.10;66.80;;;;;;5025686;28;20071;-76
2022/12/22 11:59:08;;;;;;;6.80;2.80;;;;;;;;;;5032751;28;20491;-76
2022/12/22 12:01:46;;;;;;;6.60;2.50;;;14.00;66.80;;;;;;5031597;28;20133;-75
2022/12/22 12:04:26;;;;;;;3.80;2.58;;;14.10;66.90;;;;;;5031368;28;20147;-75
2022/12/22 12:07:07;;;;;;;4.70;2.80;;;14.10;67.10;;;;;;5031231;28;20136;-75
2022/12/22 12:09:37;;;;;;;4.85;2.40;;;;;;;;;;5018604;28;20138;-76
2022/12/22 12:12:06;;;;;;;6.65;2.33;;;14.00;66.20;;;;;;5011703;28;20149;-76
2022/12/22 12:14:36;;;;;;;7.07;2.38;;;14.00;66.90;;;;;;5015898;28;20041;-75
2022/12/22 12:17:03;;;;;;;4.55;2.25;;;;;;;;;;5030166;28;20140;-76
2022/12/22 12:19:44;;;;;;;4.38;2.30;;;14.00;67.00;;;;;;5011477;28;20522;-76
2022/12/22 12:22:14;;;;;;;3.45;2.22;;;14.00;67.00;;;;;;5011266;28;20137;-78
2022/12/22 12:24:43;;;;;;;4.85;2.50;;;;;;;;;;5013786;28;20057;-76
2022/12/22 12:27:12;;;;;;;4.78;2.33;;;;;;;;;;5030832;28;20056;-76
2022/12/22 12:29:41;;;;;;;4.72;2.47;;;;;;;;;;5030339;28;20139;-76
2022/12/22 12:32:11;;;;;;;3.80;2.08;;;;;;;;;;5016843;28;20089;-75
2022/12/22 12:34:39;;;;;;;5.07;2.10;;;;;;;;;;5022922;28;20068;-76
2022/12/22 12:37:08;;;;;;;4.95;3.13;;;14.00;67.00;;;;;;5030600;28;20053;-76
2022/12/22 12:39:37;;;;;;;5.47;2.67;;;;;;;;;;5021787;28;20064;-77
2022/12/22 12:42:05;;;;;;;5.65;2.28;;;;;;;;;;5030763;28;20140;-76
2022/12/22 12:44:34;;;;;;;4.20;2.13;;;14.10;67.10;;;;;;5013324;28;20138;-75
2022/12/22 12:47:08;;;;;;;2.88;2.00;;;;;;;;;;5022753;28;20053;-75
2022/12/22 12:49:56;;;;;;;4.50;2.23;;;;;;;;;;5014508;28;20495;-76
2022/12/22 12:53:12;;;;;;;5.20;2.38;;;14.00;63.70;;;;;;4990942;28;20064;-77
2022/12/22 12:55:53;;;;;;;3.47;2.20;;;;;;;;;;5031049;28;20152;-76
2022/12/22 12:58:42;;;;;;;2.78;1.65;;;;;;;;;;5028038;28;20124;-76
2022/12/22 13:01:10;;;;;;;3.35;2.22;;;14.00;65.70;;;;;;5005156;28;20057;-75
2022/12/22 13:03:37;;;;;;;5.20;2.15;;;;;;;;;;5027488;28;20136;-75
2022/12/22 13:06:05;;;;;;;5.45;2.08;;;;;;;;;;5035664;28;20045;-75
2022/12/22 13:08:32;;;;;;;4.00;2.20;;;;;;;;;;5034688;28;20059;-76
2022/12/22 13:11:19;;;;;;;3.47;2.13;;;;;;;;;;5034675;28;20047;-76
2022/12/22 13:13:47;;;;;;;2.90;1.85;;;;;;;;;;5034472;28;20092;-76
2022/12/22 13:16:21;;;;;;;3.70;1.95;;;;;;;;;;5034749;28;20557;-76
2022/12/22 13:18:48;;;;;;;4.20;2.30;;;;;;;;;;5033839;28;20132;-76
2022/12/22 13:21:16;;;;;;;4.03;2.08;;;;;;;;;;5020561;28;20046;-75
2022/12/22 13:23:44;;;;;;;2.97;1.70;;;13.90;67.20;;;;;;5014651;28;20061;-76
2022/12/22 13:26:12;;;;;;;2.35;1.60;;;;;;;;;;5015811;28;20052;-76
2022/12/22 13:28:42;;;;;;;3.17;2.08;;;14.00;67.30;;;;;;5015207;28;20510;-75
2022/12/22 13:31:13;;;;;;;3.38;1.90;;;;;;;;;;5029863;28;20402;-75
2022/12/22 13:33:40;;;;;;;3.22;1.90;;;;;;;;;;5014485;28;20728;-76
2022/12/22 13:36:07;;;;;;;3.80;1.80;;;;;;;;;;5032444;28;20061;-75
2022/12/22 13:38:35;;;;;;;2.72;1.90;;;14.10;65.30;;;;;;5034108;28;20053;-76
2022/12/22 13:41:03;;;;;;;3.58;1.75;;;14.10;66.40;;;;;;5014378;28;20058;-77
2022/12/22 13:43:31;;;;;;;3.05;1.92;;;;;;;;;;5014021;28;20054;-75
2022/12/22 13:45:59;;;;;;;2.75;1.45;;;;;;;;;;5031955;28;20137;-75
2022/12/22 13:48:29;;;;;;;2.17;1.50;;;14.00;65.20;;;;;;5033127;28;20049;-76
2022/12/22 13:50:57;;;;;;;2.05;1.63;;;14.00;65.30;;;;;;5014787;28;20061;-76
2022/12/22 13:53:26;;;;;;;4.50;1.80;;;;;;;;;;5016618;28;20057;-76
2022/12/22 13:55:53;;;;;;;3.20;1.80;;;;;;;;;;5013920;28;20132;-76
2022/12/22 13:58:25;;;;;;;5.30;1.60;;;14.10;67.40;;;;;;5013682;28;20050;-76
2022/12/22 14:01:02;;;;;;;2.60;1.52;;;;;;;;;;5030048;28;20505;-75
2022/12/22 14:03:29;;;;;;;3.17;1.70;;;;;;;;;;5030334;28;20049;-76
2022/12/22 14:05:56;;;;;;;2.97;1.48;;;;;;;;;;5033778;28;20132;-76
2022/12/22 14:08:23;;;;;;;3.50;1.80;;;;;;;;;;5033693;28;20145;-75
2022/12/22 14:10:50;;;;;;;3.05;1.60;;;;;;;;;;5033275;28;20054;-77
2022/12/22 14:13:18;;;;;;;2.88;1.55;;;14.10;67.40;;;;;;5032247;28;20085;-77
2022/12/22 14:15:45;;;;;;;2.85;1.70;;;;;;;;;;5033421;28;20059;-76
2022/12/22 14:18:15;;;;;;;3.38;1.75;;;;;;;;;;5031286;28;20080;-75
2022/12/22 14:20:42;;;;;;;3.10;1.70;;;;;;;;;;5021523;28;20052;-75
2022/12/22 14:23:12;;;;;;;3.92;1.83;;;;;;;;;;5022786;28;20595;-76
2022/12/22 14:25:39;;;;;;;2.30;1.50;;;;;;;;;;5021919;28;20136;-76
2022/12/22 14:28:07;;;;;;;3.05;1.58;;;;;;;;;;5031720;28;20059;-76
2022/12/22 14:30:35;;;;;;;4.15;1.90;;;;;;;;;;5023979;28;20060;-77
2022/12/22 14:33:15;;;;;;;3.35;1.58;;;;;;;;;;5025131;28;20409;-76
2022/12/22 14:35:43;;;;;;;2.58;1.50;;;;;;;;;;5020080;28;20057;-76
2022/12/22 14:38:27;;;;;;;2.60;1.80;;;;;;;;;;5019421;28;20156;-76
2022/12/22 14:40:54;;;;;;;2.72;1.50;;;;;;;;;;5020876;28;20510;-76
2022/12/22 14:43:24;;;;;;;2.35;1.60;;;;;;;;;;5016693;28;20569;-76
2022/12/22 14:45:52;;;;;;;3.03;1.48;;;;;;;;;;5018809;28;20054;-75
2022/12/22 14:48:21;;;;;;;4.22;1.75;;;;;;;;;;5028431;28;20073;-76
2022/12/22 14:50:48;;;;;;;2.40;1.50;;;;;;;;;;5023758;28;20072;-76
2022/12/22 14:53:15;;;;;;;2.28;1.50;;;;;;;;;;5021200;28;20054;-76
2022/12/22 14:55:43;;;;;;;2.38;1.50;;;;;;;;;;5026605;28;20060;-76
2022/12/22 14:58:11;;;;;;;3.45;1.48;;;14.30;66.60;;;;;;5027739;28;20042;-75
2022/12/22 15:00:39;;;;;;;4.13;1.60;;;;;;;;;;5028464;28;20049;-76
2022/12/22 15:03:06;;;;;;;2.00;1.40;;;;;;;;;;5023218;28;20495;-75
2022/12/22 15:05:37;;;;;;;4.00;1.60;;;;;;;;;;5021606;28;20053;-76
2022/12/22 15:08:04;;;;;;;2.55;1.70;;;14.40;64.90;;;;;;5024076;28;20559;-76
2022/12/22 15:10:34;;;;;;;2.47;1.50;;;;;;;;;;5021236;28;20132;-76
2022/12/22 15:13:04;;;;;;;2.65;1.42;;;14.40;67.00;;;;;;5022682;28;20045;-75
2022/12/22 15:15:31;;;;;;;4.68;1.42;;;;;;;;;;5017092;28;20055;-75
2022/12/22 15:17:58;;;;;;;4.93;1.60;;;;;;;;;;5017064;28;20422;-75
2022/12/22 15:20:26;;;;;;;3.80;1.67;;;;;;;;;;5023085;28;20128;-76
2022/12/22 15:22:54;;;;;;;2.70;1.60;;;;;;;;;;5019363;28;20042;-75
2022/12/22 15:25:22;;;;;;;4.07;1.88;;;;;;;;;;5021280;28;20522;-76
2022/12/22 15:27:49;;;;;;;4.10;1.55;;;;;;;;;;5023371;28;20056;-76
2022/12/22 15:30:18;;;;;;;3.25;1.60;;;14.50;66.80;;;;;;5023993;28;20171;-76
2022/12/22 15:32:45;;;;;;;3.42;1.55;;;;;;;;;;5023222;28;20768;-76
2022/12/22 15:35:16;;;;;;;2.15;1.40;;;;;;;;;;5023801;28;20483;-76
2022/12/22 15:37:43;;;;;;;2.42;1.40;;;;;;;;;;5025229;28;20136;-75
2022/12/22 15:40:15;;;;;;;2.30;1.38;;;;;;;;;;5024020;28;20581;-76
2022/12/22 15:42:42;;;;;;;3.10;1.60;;;;;;;;;;5019574;28;20749;-77
2022/12/22 15:45:09;;;;;;;3.35;1.50;;;;;;;;;;5022943;28;20490;-79
2022/12/22 15:47:36;;;;;;;2.30;1.38;;;;;;;;;;5022592;28;20057;-77
2022/12/22 15:50:03;;;;;;;2.15;1.30;;;;;;;;;;5013417;28;20120;-75
2022/12/22 15:52:31;;;;;;;1.98;1.20;;;;;;;;;;5017085;28;20041;-76
2022/12/22 15:54:58;;;;;;;3.15;1.58;;;;;;;;;;5020962;28;20049;-75
2022/12/22 15:57:26;;;;;;;2.45;1.67;;;;;;;;;;5021446;28;20475;-75
2022/12/22 15:59:53;;;;;;;3.70;1.50;;;;;;;;;;5020497;28;20057;-75
2022/12/22 16:02:20;;;;;;;2.97;1.45;;;;;;;;;;5022428;28;20037;-77
2022/12/22 16:04:47;;;;;;;2.40;1.52;;;;;;;;;;5020229;28;20064;-76
2022/12/22 16:07:15;;;;;;;2.75;1.40;;;;;;;;;;5022189;28;20056;-76
2022/12/22 16:09:42;;;;;;;1.67;1.30;;;;;;;;;;5027069;28;20059;-75
2022/12/22 16:12:11;;;;;;;1.65;1.40;;;;;;;;;;5030477;28;20059;-75
2022/12/22 16:14:39;;;;;;;2.65;1.40;;;;;;;;;;5021880;28;20595;-75
2022/12/22 16:17:07;;;;;;;2.03;1.50;;;;;;;;;;5019549;28;20061;-75
2022/12/22 16:19:34;;;;;;;2.45;1.58;;;;;;;;;;5030851;28;20473;-75
2022/12/22 16:22:01;;;;;;;2.13;1.30;;;;;;;;;;5028597;28;20104;-75
2022/12/22 16:24:28;;;;;;;1.88;1.52;;;;;;;;;;5011330;28;20057;-75
2022/12/22 16:26:56;;;;;;;2.75;1.50;;;;;;;;;;5018530;28;20050;-76
2022/12/22 16:29:23;;;;;;;4.22;1.60;;;;;;;;;;5011690;28;20495;-77
2022/12/22 16:31:52;;;;;;;3.15;1.33;;;;;;;;;;5012460;28;20057;-75
2022/12/22 16:34:19;;;;;;;3.30;1.52;;;;;;;;;;5011055;28;20052;-75
2022/12/22 16:36:46;;;;;;;4.07;1.50;;;;;;;;;;5018317;28;20124;-75
2022/12/22 16:39:13;;;;;;;2.33;1.40;;;;;;;;;;5029963;28;20061;-75
2022/12/22 16:41:40;;;;;;;2.22;1.35;;;;;;;;;;5030543;28;20081;-75
2022/12/22 16:44:08;;;;;;;1.75;1.17;;;;;;;;;;5030503;28;20085;-75
2022/12/22 16:46:35;;;;;;;2.95;1.50;;;;;;;;;;5030754;28;20160;-75
2022/12/22 16:49:04;;;;;;;2.65;1.33;;;;;;;;;;5011961;28;20141;-75
2022/12/22 16:51:33;;;;;;;2.25;1.40;;;14.20;66.00;;;;;;5015829;28;20128;-75
2022/12/22 16:54:00;;;;;;;2.90;1.70;;;;;;;;;;5016242;28;20053;-75
2022/12/22 16:56:27;;;;;;;2.42;1.50;;;;;;;;;;5026817;28;20049;-76
2022/12/22 16:58:54;;;;;;;1.55;1.30;;;;;;;;;;5018568;28;20054;-76
2022/12/22 17:01:28;;;;;;;2.22;1.60;;;14.20;65.70;;;;;;5011712;28;20060;-75
2022/12/22 17:03:55;;;;;;;1.98;1.40;;;;;;;;;;5021212;28;20054;-75
2022/12/22 17:06:23;;;;;;;3.33;1.63;;;;;;;;;;5030123;28;20068;-75
2022/12/22 17:08:50;;;;;;;3.38;1.70;;;;;;;;;;5025847;28;20057;-76
2022/12/22 17:11:18;;;;;;;4.93;1.85;;;;;;;;;;5030166;28;20136;-75
2022/12/22 17:13:45;;;;;;;3.28;1.50;;;;;;;;;;5029853;28;20490;-75
2022/12/22 17:16:16;;;;;;;2.72;1.80;;;;;;;;;;5030338;28;20656;-75
2022/12/22 17:18:43;;;;;;;2.88;1.80;;;;;;;;;;5021004;28;20487;-75
2022/12/22 17:21:10;;;;;;;3.03;1.50;;;;;;;;;;5021279;28;20467;-75
2022/12/22 17:23:39;;;;;;;3.13;1.60;;;14.20;66.90;;;;;;5021382;28;20057;-75
2022/12/22 17:26:07;;;;;;;2.67;2.03;;;;;;;;;;5030324;28;20061;-76
2022/12/22 17:28:34;;;;;;;2.25;1.58;;;;;;;;;;5017562;28;20041;-76
2022/12/22 17:31:01;;;;;;;2.60;1.67;;;;;;;;;;5021856;28;20046;-75
2022/12/22 17:33:28;;;;;;;4.53;1.80;;;;;;;;;;5029335;28;20060;-75
2022/12/22 17:35:55;;;;;;;2.65;1.55;;;;;;;;;;5029481;28;20075;-77
2022/12/22 17:38:24;;;;;;;6.05;2.42;;;;;;;;;;5016669;28;20129;-76
2022/12/22 17:40:53;;;;;;;16.67;4.80;;;;;;;;;;5030446;28;20049;-76
2022/12/22 17:43:20;;;;;;;11.82;4.38;;;;;;;;;;5016398;28;20517;-76
2022/12/22 17:45:47;;;;;;;10.75;3.90;;;;;;;;;;5010576;28;20057;-75
2022/12/22 17:48:14;;;;;;;22.63;6.78;;;;;;;;;;5018059;28;20132;-75
2022/12/22 17:50:42;;;;;;;26.77;7.55;;;;;;;;;;5033420;28;20467;-76
2022/12/22 17:53:10;;;;;;;24.77;8.15;;;;;;;;;;5031643;28;20077;-75
2022/12/22 17:55:37;;;;;;;23.58;8.02;;;;;;;;;;5031788;28;20054;-75
2022/12/22 17:58:05;;;;;;;24.63;7.45;;;;;;;;;;5031053;28;20068;-76
2022/12/22 18:00:32;;;;;;;31.50;9.48;;;;;;;;;;5015689;28;20045;-76
2022/12/22 18:02:59;;;;;;;24.27;9.13;;;;;;;;;;5033351;28;20149;-75
2022/12/22 18:05:27;;;;;;;25.77;8.35;;;14.40;67.20;;;;;;5018773;28;20076;-75
2022/12/22 18:07:57;;;;;;;21.45;8.43;;;;;;;;;;5016163;28;20058;-76
2022/12/22 18:10:25;;;;;;;22.90;7.90;;;;;;;;;;5036527;28;20128;-77